Time;durP1;ratioP1;P1;durP2;ratioP2;P2;SDS_P1;SDS_P2;PMS_P1;PMS_P2;Temp;Humidity;BMP_temperature;BMP_pressure;BME280_temperature;BME280_humidity;BME280_pressure;Samples;Min_cycle;Max_cycle;Signal;HPM_P1;HPM_P2
2021/03/12 00:02:09;;;;;;;1.73;0.27;;;7.10;99.90;;;;;;5093489;28;20680;-59
2021/03/12 00:04:35;;;;;;;2.22;0.68;;;7.00;99.90;;;;;;5090901;28;20172;-59
2021/03/12 00:07:01;;;;;;;3.60;0.80;;;7.00;99.90;;;;;;5106866;28;20194;-59
2021/03/12 00:09:26;;;;;;;4.93;0.73;;;7.00;99.90;;;;;;5076077;28;20523;-57
2021/03/12 00:11:52;;;;;;;3.50;0.50;;;6.90;99.90;;;;;;5096566;28;20187;-59
2021/03/12 00:14:18;;;;;;;2.03;0.47;;;6.90;99.90;;;;;;5100175;28;20248;-59
2021/03/12 00:16:44;;;;;;;3.07;0.60;;;6.90;99.90;;;;;;5092997;28;20199;-59
2021/03/12 00:19:09;;;;;;;3.33;0.50;;;6.90;99.90;;;;;;5095916;28;20461;-59
2021/03/12 00:21:35;;;;;;;1.70;0.30;;;6.90;99.90;;;;;;5092678;28;20184;-59
2021/03/12 00:24:01;;;;;;;1.80;0.40;;;6.90;99.90;;;;;;5097390;28;20176;-59
2021/03/12 00:26:26;;;;;;;2.10;0.50;;;6.90;99.90;;;;;;5107278;28;20207;-59
2021/03/12 00:28:52;;;;;;;1.70;0.20;;;6.90;99.90;;;;;;5095871;28;20246;-59
2021/03/12 00:31:18;;;;;;;4.07;0.90;;;6.90;99.90;;;;;;5100092;28;20222;-59
2021/03/12 00:33:43;;;;;;;2.37;0.50;;;6.90;99.90;;;;;;5107913;28;20210;-59
2021/03/12 00:36:09;;;;;;;3.90;1.53;;;6.90;99.90;;;;;;5096583;28;20237;-59
2021/03/12 00:38:34;;;;;;;1.80;0.40;;;7.00;99.90;;;;;;5097828;28;20558;-59
2021/03/12 00:41:03;;;;;;;2.50;0.40;;;7.00;99.90;;;;;;5093630;28;20211;-58
2021/03/12 00:43:29;;;;;;;2.30;0.43;;;7.00;99.90;;;;;;5086788;28;20187;-58
2021/03/12 00:46:02;;;;;;;1.70;0.20;;;7.00;99.90;;;;;;5096184;28;20291;-58
2021/03/12 00:48:28;;;;;;;2.10;0.40;;;7.00;99.90;;;;;;5091641;28;20728;-59
2021/03/12 00:50:54;;;;;;;1.70;0.20;;;7.00;99.90;;;;;;5093365;28;20188;-59
2021/03/12 00:53:20;;;;;;;3.10;0.83;;;7.00;99.90;;;;;;5093480;28;20203;-59
2021/03/12 00:55:46;;;;;;;2.55;0.65;;;7.00;99.90;;;;;;5101353;28;20827;-59
2021/03/12 00:58:12;;;;;;;3.28;0.70;;;7.00;99.90;;;;;;5093543;28;20196;-59
2021/03/12 01:00:38;;;;;;;1.97;0.40;;;7.00;99.90;;;;;;5104381;28;20580;-59
2021/03/12 01:03:05;;;;;;;2.03;0.40;;;6.90;99.90;;;;;;5095798;28;20211;-59
2021/03/12 01:05:31;;;;;;;2.75;0.45;;;6.90;99.90;;;;;;5094395;28;20192;-59
2021/03/12 01:07:57;;;;;;;2.30;0.57;;;6.90;99.90;;;;;;5100068;28;20204;-59
2021/03/12 01:10:23;;;;;;;2.00;0.60;;;6.90;99.90;;;;;;5100005;28;20595;-59
2021/03/12 01:12:50;;;;;;;2.22;0.35;;;6.90;99.90;;;;;;5095870;28;20194;-59
2021/03/12 01:15:18;;;;;;;3.38;0.65;;;7.00;99.90;;;;;;5102780;28;20250;-59
2021/03/12 01:17:45;;;;;;;2.70;0.70;;;7.00;99.90;;;;;;5092577;28;20211;-59
2021/03/12 01:20:32;;;;;;;1.98;0.45;;;7.00;99.90;;;;;;5097032;28;20249;-59
2021/03/12 01:23:00;;;;;;;2.00;0.55;;;7.00;99.90;;;;;;5100796;28;20546;-59
2021/03/12 01:25:29;;;;;;;3.58;0.70;;;6.90;99.90;;;;;;5095931;28;20179;-59
2021/03/12 01:27:55;;;;;;;1.70;0.20;;;6.90;99.90;;;;;;5094386;28;20729;-58
2021/03/12 01:30:20;;;;;;;2.20;1.10;;;7.00;99.90;;;;;;5103031;28;20180;-58
2021/03/12 01:32:47;;;;;;;2.17;0.30;;;6.90;99.90;;;;;;5094118;28;20238;-59
2021/03/12 01:35:13;;;;;;;1.70;0.20;;;6.90;99.90;;;;;;5092736;28;20245;-58
2021/03/12 01:37:38;;;;;;;2.50;0.38;;;6.90;99.90;;;;;;5095572;28;20279;-59
2021/03/12 01:40:06;;;;;;;1.80;0.40;;;6.80;99.90;;;;;;5092566;28;20263;-59
2021/03/12 01:42:32;;;;;;;2.00;0.50;;;6.80;99.90;;;;;;5097041;28;20184;-58
2021/03/12 01:44:58;;;;;;;3.80;0.63;;;6.80;99.90;;;;;;5105564;28;20205;-65
2021/03/12 01:47:23;;;;;;;2.00;0.50;;;6.80;99.90;;;;;;5092495;28;20207;-58
2021/03/12 01:49:49;;;;;;;2.30;0.47;;;6.80;99.90;;;;;;5096476;28;20184;-58
2021/03/12 01:52:15;;;;;;;3.00;0.50;;;6.70;99.90;;;;;;5094769;28;20194;-58
2021/03/12 01:54:41;;;;;;;1.80;0.30;;;6.70;99.90;;;;;;5090484;28;20355;-58
2021/03/12 01:57:07;;;;;;;2.27;0.40;;;6.70;99.90;;;;;;5103312;28;20290;-58
2021/03/12 01:59:33;;;;;;;6.40;0.70;;;6.70;99.90;;;;;;5097207;28;20209;-58
2021/03/12 02:01:59;;;;;;;1.70;0.30;;;6.70;99.90;;;;;;5095991;28;20429;-58
2021/03/12 02:04:24;;;;;;;2.20;0.37;;;6.70;99.90;;;;;;5087678;28;20461;-59
2021/03/12 02:06:51;;;;;;;2.17;0.40;;;6.70;99.90;;;;;;5096122;28;20437;-58
2021/03/12 02:09:18;;;;;;;2.22;0.50;;;6.70;99.90;;;;;;5098315;28;20266;-58
2021/03/12 02:12:07;;;;;;;2.60;0.70;;;6.60;99.90;;;;;;5105236;28;20227;-58
2021/03/12 02:14:48;;;;;;;3.58;0.88;;;6.60;99.90;;;;;;5096974;28;20243;-58
2021/03/12 02:17:23;;;;;;;2.90;0.88;;;6.60;99.90;;;;;;5093463;28;20291;-58
2021/03/12 02:20:17;;;;;;;2.00;0.40;;;6.60;99.90;;;;;;5093880;28;20179;-58
2021/03/12 02:22:49;;;;;;;2.00;0.30;;;6.60;99.90;;;;;;5099899;28;20175;-59
2021/03/12 02:25:17;;;;;;;1.70;0.30;;;6.60;99.90;;;;;;5097477;28;20179;-58
2021/03/12 02:27:44;;;;;;;4.03;1.15;;;6.60;99.90;;;;;;5096557;28;20216;-58
2021/03/12 02:30:10;;;;;;;2.42;0.55;;;6.60;99.90;;;;;;5094113;28;20213;-59
2021/03/12 02:32:40;;;;;;;3.15;0.63;;;6.70;99.90;;;;;;5077288;28;20515;-58
2021/03/12 02:35:15;;;;;;;2.60;0.60;;;6.70;99.90;;;;;;5100512;28;20214;-58
2021/03/12 02:37:43;;;;;;;2.10;0.50;;;6.70;99.90;;;;;;5103806;28;20191;-58
2021/03/12 02:40:09;;;;;;;3.05;0.57;;;6.60;99.90;;;;;;5093427;28;20184;-58
2021/03/12 02:42:37;;;;;;;2.80;0.30;;;6.70;99.90;;;;;;5098447;28;20207;-58
2021/03/12 02:45:06;;;;;;;2.22;0.35;;;6.60;99.90;;;;;;5096477;28;20187;-59
2021/03/12 02:47:32;;;;;;;1.80;0.30;;;6.60;99.90;;;;;;5094398;28;20199;-59
2021/03/12 02:49:58;;;;;;;1.70;0.20;;;6.60;99.90;;;;;;5098386;28;20271;-59
2021/03/12 02:52:25;;;;;;;3.08;0.88;;;6.60;99.90;;;;;;5103746;28;20172;-59
2021/03/12 02:54:52;;;;;;;2.40;0.93;;;6.60;99.90;;;;;;5095679;28;20651;-59
2021/03/12 02:57:20;;;;;;;1.70;0.20;;;6.50;99.90;;;;;;5103791;28;20279;-59
2021/03/12 02:59:48;;;;;;;3.25;0.57;;;6.50;99.90;;;;;;5087831;28;20184;-59
2021/03/12 03:02:24;;;;;;;2.00;0.40;;;6.40;99.90;;;;;;5093441;28;20187;-59
2021/03/12 03:04:53;;;;;;;2.40;1.13;;;6.40;99.90;;;;;;5106715;28;20206;-59
2021/03/12 03:07:20;;;;;;;2.00;0.50;;;6.40;99.90;;;;;;5097710;28;20222;-59
2021/03/12 03:09:46;;;;;;;1.75;0.28;;;6.40;99.90;;;;;;5098449;28;20204;-59
2021/03/12 03:12:18;;;;;;;2.53;0.50;;;6.30;99.90;;;;;;5102807;28;20204;-59
2021/03/12 03:14:50;;;;;;;5.85;1.20;;;6.30;99.90;;;;;;5095836;28;20215;-59
2021/03/12 03:17:17;;;;;;;1.80;0.40;;;6.30;99.90;;;;;;5096936;28;20207;-59
2021/03/12 03:19:47;;;;;;;1.70;0.20;;;6.20;99.90;;;;;;5101000;28;20639;-59
2021/03/12 03:22:15;;;;;;;5.80;1.20;;;6.20;99.90;;;;;;5099697;28;20187;-59
2021/03/12 03:24:41;;;;;;;1.70;0.20;;;6.20;99.90;;;;;;5096462;28;20206;-59
2021/03/12 03:27:07;;;;;;;2.87;0.80;;;6.20;99.90;;;;;;5101064;28;20192;-60
2021/03/12 03:29:33;;;;;;;4.00;0.40;;;6.20;99.90;;;;;;5094628;28;20190;-59
2021/03/12 03:32:00;;;;;;;1.80;0.30;;;6.20;99.90;;;;;;5089686;28;20259;-59
2021/03/12 03:34:25;;;;;;;1.77;0.38;;;6.20;99.90;;;;;;5090370;28;20254;-59
2021/03/12 03:36:51;;;;;;;3.50;1.00;;;6.20;99.90;;;;;;5096631;28;20335;-59
2021/03/12 03:39:17;;;;;;;1.70;0.20;;;6.20;99.90;;;;;;5102991;28;20176;-59
2021/03/12 03:41:46;;;;;;;1.73;0.27;;;6.20;99.90;;;;;;5103199;28;20183;-59
2021/03/12 03:44:14;;;;;;;2.92;0.73;;;6.20;99.90;;;;;;5096633;28;20448;-59
2021/03/12 03:46:44;;;;;;;1.70;0.20;;;6.20;99.90;;;;;;5096066;28;20187;-59
2021/03/12 03:49:13;;;;;;;13.35;1.02;;;6.20;99.90;;;;;;5103373;28;20700;-59
2021/03/12 03:51:40;;;;;;;2.28;0.40;;;6.20;99.90;;;;;;5094935;28;20201;-59
2021/03/12 03:54:06;;;;;;;6.85;0.70;;;6.10;99.90;;;;;;5102649;28;20253;-59
2021/03/12 03:56:35;;;;;;;2.17;0.40;;;6.10;99.90;;;;;;5100816;28;20230;-59
2021/03/12 03:59:01;;;;;;;9.02;0.75;;;6.10;99.90;;;;;;5092860;28;20196;-59
2021/03/12 04:01:27;;;;;;;4.35;1.95;;;6.10;99.90;;;;;;5099243;28;20673;-59
2021/03/12 04:03:53;;;;;;;3.03;1.13;;;6.10;99.90;;;;;;5099719;28;20270;-59
2021/03/12 04:06:19;;;;;;;2.05;0.90;;;6.00;99.90;;;;;;5095457;28;20936;-59
2021/03/12 04:08:47;;;;;;;4.40;0.65;;;6.00;99.90;;;;;;5104063;28;20662;-59
2021/03/12 04:11:13;;;;;;;2.10;0.40;;;6.00;99.90;;;;;;5096382;28;20196;-59
2021/03/12 04:13:40;;;;;;;1.90;0.40;;;6.00;99.90;;;;;;5096943;28;20223;-59
2021/03/12 04:16:07;;;;;;;2.80;0.73;;;6.00;99.90;;;;;;5101747;28;20282;-59
2021/03/12 04:18:33;;;;;;;4.50;0.75;;;5.90;99.90;;;;;;5092215;28;20308;-59
2021/03/12 04:20:59;;;;;;;2.53;0.53;;;5.90;99.90;;;;;;5094035;28;20682;-59
2021/03/12 04:23:25;;;;;;;1.90;0.40;;;5.90;99.90;;;;;;5104805;28;20179;-59
2021/03/12 04:25:51;;;;;;;3.73;0.80;;;5.90;99.90;;;;;;5097457;28;20569;-59
2021/03/12 04:28:17;;;;;;;3.25;0.55;;;5.90;99.90;;;;;;5100258;28;20215;-59
2021/03/12 04:30:45;;;;;;;1.70;0.30;;;5.80;99.90;;;;;;5099705;28;20187;-59
2021/03/12 04:33:11;;;;;;;2.10;0.50;;;5.80;99.90;;;;;;5090980;28;20184;-59
2021/03/12 04:35:36;;;;;;;6.50;0.75;;;5.80;99.90;;;;;;5098068;28;20260;-59
2021/03/12 04:38:03;;;;;;;1.70;0.20;;;5.80;99.90;;;;;;5102212;28;20592;-59
2021/03/12 04:40:30;;;;;;;2.70;0.57;;;5.70;99.90;;;;;;5094260;28;20612;-59
2021/03/12 04:42:56;;;;;;;2.22;0.65;;;5.70;99.90;;;;;;5106051;28;20176;-59
2021/03/12 04:45:22;;;;;;;6.03;0.90;;;5.70;99.90;;;;;;5101770;28;20199;-58
2021/03/12 04:47:49;;;;;;;1.70;0.20;;;5.60;99.90;;;;;;5095459;28;20210;-59
2021/03/12 04:50:14;;;;;;;2.80;0.55;;;5.60;99.90;;;;;;5104049;28;20309;-59
2021/03/12 04:52:40;;;;;;;3.33;0.70;;;5.70;99.90;;;;;;5091821;28;20211;-59
2021/03/12 04:55:08;;;;;;;1.70;0.20;;;5.70;99.90;;;;;;5091464;28;20199;-58
2021/03/12 04:57:37;;;;;;;6.47;1.13;;;5.70;99.90;;;;;;5105438;28;20941;-59
2021/03/12 05:00:06;;;;;;;2.40;0.80;;;5.70;99.90;;;;;;5098994;28;20183;-59
2021/03/12 05:02:34;;;;;;;4.28;1.67;;;5.70;99.90;;;;;;5099736;28;20169;-59
2021/03/12 05:05:01;;;;;;;4.05;0.80;;;5.70;99.90;;;;;;5099663;28;20184;-59
2021/03/12 05:07:27;;;;;;;8.13;1.42;;;5.70;99.90;;;;;;5096393;28;20234;-59
2021/03/12 05:09:53;;;;;;;2.85;0.82;;;5.70;99.90;;;;;;5098160;28;20201;-59
2021/03/12 05:12:18;;;;;;;1.80;0.20;;;5.70;99.90;;;;;;5103835;28;20191;-59
2021/03/12 05:14:44;;;;;;;4.53;0.80;;;5.70;99.90;;;;;;5093634;28;20550;-59
2021/03/12 05:17:09;;;;;;;1.80;0.30;;;5.70;99.90;;;;;;5099601;28;20253;-59
2021/03/12 05:19:35;;;;;;;3.50;0.50;;;5.70;99.90;;;;;;5099777;28;20175;-59
2021/03/12 05:22:01;;;;;;;1.70;0.20;;;5.70;99.90;;;;;;5092417;28;20179;-59
2021/03/12 05:24:26;;;;;;;1.70;0.20;;;5.70;99.90;;;;;;5091427;28;20630;-59
2021/03/12 05:26:52;;;;;;;2.73;0.60;;;5.70;99.90;;;;;;5094874;28;20434;-59
2021/03/12 05:29:18;;;;;;;4.30;0.50;;;5.70;99.90;;;;;;5092710;28;20180;-59
2021/03/12 05:31:43;;;;;;;1.73;0.30;;;5.70;99.90;;;;;;5098457;28;20435;-59
2021/03/12 05:34:09;;;;;;;1.70;0.20;;;5.80;99.90;;;;;;5094630;28;20207;-59
2021/03/12 05:36:38;;;;;;;1.70;0.20;;;5.80;99.90;;;;;;5096338;28;20698;-59
2021/03/12 05:39:04;;;;;;;1.70;0.20;;;5.70;99.90;;;;;;5096807;28;20206;-59
2021/03/12 05:41:31;;;;;;;1.70;0.20;;;5.80;99.90;;;;;;5092965;28;20242;-59
2021/03/12 05:44:01;;;;;;;3.50;0.70;;;5.80;99.90;;;;;;5090735;28;20210;-59
2021/03/12 05:46:27;;;;;;;1.85;0.45;;;5.80;99.90;;;;;;5106752;28;20794;-59
2021/03/12 05:48:52;;;;;;;2.67;0.80;;;5.90;99.90;;;;;;5090067;28;20211;-59
2021/03/12 05:51:18;;;;;;;3.80;0.83;;;5.90;99.90;;;;;;5095916;28;20192;-59
2021/03/12 05:53:46;;;;;;;1.70;0.20;;;6.00;99.90;;;;;;5089344;28;20434;-59
2021/03/12 05:56:11;;;;;;;2.95;0.40;;;5.90;99.90;;;;;;5093309;28;20203;-60
2021/03/12 05:58:37;;;;;;;3.60;1.00;;;5.90;99.90;;;;;;5096882;28;20244;-59
2021/03/12 06:01:03;;;;;;;3.58;1.00;;;6.00;99.90;;;;;;5103588;28;20282;-58
2021/03/12 06:03:29;;;;;;;4.47;1.70;;;6.00;99.90;;;;;;5091970;28;20225;-58
2021/03/12 06:05:54;;;;;;;4.03;0.87;;;6.00;99.90;;;;;;5100805;28;20183;-58
2021/03/12 06:08:20;;;;;;;1.70;0.20;;;6.00;99.90;;;;;;5095996;28;20211;-58
2021/03/12 06:10:46;;;;;;;1.70;0.20;;;6.00;99.90;;;;;;5090381;28;20240;-58
2021/03/12 06:13:11;;;;;;;1.70;0.20;;;6.10;99.90;;;;;;5094298;28;20661;-58
2021/03/12 06:15:39;;;;;;;2.63;0.70;;;6.10;99.90;;;;;;5094067;28;20521;-58
2021/03/12 06:18:22;;;;;;;1.90;0.40;;;6.10;99.90;;;;;;5091499;28;20203;-58
2021/03/12 06:20:48;;;;;;;2.13;0.68;;;6.00;99.90;;;;;;5102872;28;20255;-58
2021/03/12 06:23:49;;;;;;;2.33;0.80;;;6.00;99.90;;;;;;5099668;28;20180;-58
2021/03/12 06:26:15;;;;;;;5.72;0.95;;;6.00;99.90;;;;;;5029236;28;20439;-59
2021/03/12 06:28:40;;;;;;;2.93;1.47;;;6.00;99.90;;;;;;5081933;28;20262;-58
2021/03/12 06:31:26;;;;;;;2.80;0.83;;;6.00;99.90;;;;;;5105068;28;20229;-59
2021/03/12 06:34:07;;;;;;;2.78;1.55;;;6.10;99.90;;;;;;5091574;28;20179;-65
2021/03/12 06:36:33;;;;;;;2.97;0.55;;;6.00;99.90;;;;;;5088748;28;20204;-58
2021/03/12 06:38:58;;;;;;;3.70;1.13;;;6.00;99.90;;;;;;5111367;28;20288;-58
2021/03/12 06:41:42;;;;;;;3.70;0.47;;;6.00;99.90;;;;;;5101263;28;20178;-58
2021/03/12 06:44:29;;;;;;;15.52;2.88;;;6.00;99.90;;;;;;5094108;28;20650;-59
2021/03/12 06:46:56;;;;;;;2.50;0.77;;;6.10;99.90;;;;;;5100602;28;20194;-59
2021/03/12 06:49:22;;;;;;;3.75;1.38;;;6.10;99.90;;;;;;5104224;28;20202;-58
2021/03/12 06:51:54;;;;;;;1.70;0.20;;;6.10;99.90;;;;;;5096925;28;22698;-59
2021/03/12 06:54:19;;;;;;;5.43;1.20;;;6.20;99.90;;;;;;5106791;28;20184;-58
2021/03/12 06:56:45;;;;;;;7.60;1.70;;;6.20;99.90;;;;;;5097970;28;20218;-58
2021/03/12 06:59:11;;;;;;;2.23;0.40;;;6.10;99.90;;;;;;5097881;28;20555;-58
2021/03/12 07:01:36;;;;;;;1.70;0.20;;;6.20;99.90;;;;;;5109596;28;20171;-58
2021/03/12 07:04:15;;;;;;;1.70;0.20;;;6.20;99.90;;;;;;5098974;28;20186;-59
2021/03/12 07:06:47;;;;;;;1.70;0.20;;;6.20;99.90;;;;;;5087580;28;20366;-58
2021/03/12 07:09:13;;;;;;;3.33;1.35;;;6.30;99.90;;;;;;5100550;28;20670;-58
2021/03/12 07:11:39;;;;;;;1.80;0.30;;;6.30;99.90;;;;;;5102440;28;20195;-59
2021/03/12 07:14:05;;;;;;;1.70;0.20;;;6.30;99.90;;;;;;5106133;28;20184;-59
2021/03/12 07:16:31;;;;;;;3.00;1.33;;;6.40;99.90;;;;;;5101391;28;20286;-59
2021/03/12 07:18:57;;;;;;;2.37;1.27;;;6.40;99.90;;;;;;5093189;28;20576;-58
2021/03/12 07:21:25;;;;;;;8.40;1.63;;;6.40;99.90;;;;;;5094730;28;20183;-59
2021/03/12 07:24:02;;;;;;;2.75;0.60;;;6.40;99.90;;;;;;5105542;28;20444;-58
2021/03/12 07:26:35;;;;;;;1.70;0.20;;;6.50;99.90;;;;;;5091001;28;20194;-58
2021/03/12 07:29:02;;;;;;;4.65;1.10;;;6.60;99.90;;;;;;5099897;28;20215;-59
2021/03/12 07:31:35;;;;;;;2.10;0.50;;;6.60;99.90;;;;;;5081918;28;20206;-59
2021/03/12 07:34:25;;;;;;;1.70;0.20;;;6.70;99.90;;;;;;5095805;28;20821;-59
2021/03/12 07:36:55;;;;;;;1.70;0.20;;;6.70;99.90;;;;;;5090558;28;20354;-59
2021/03/12 07:39:23;;;;;;;2.70;1.17;;;6.80;99.90;;;;;;5108002;28;20235;-59
2021/03/12 07:41:50;;;;;;;1.70;0.20;;;6.80;99.90;;;;;;5099057;28;20486;-59
2021/03/12 07:44:17;;;;;;;1.75;0.30;;;6.90;99.90;;;;;;5096975;28;20205;-57
2021/03/12 07:46:45;;;;;;;1.70;0.20;;;6.90;99.90;;;;;;5103246;28;20183;-59
2021/03/12 07:49:30;;;;;;;1.70;0.30;;;7.00;99.90;;;;;;5093932;28;20455;-58
2021/03/12 07:51:56;;;;;;;3.20;2.03;;;7.00;99.90;;;;;;5086484;28;20505;-58
2021/03/12 07:54:37;;;;;;;1.95;0.73;;;7.00;99.90;;;;;;5126826;28;20183;-58
2021/03/12 07:57:04;;;;;;;2.00;0.70;;;7.00;99.90;;;;;;5112752;28;20259;-63
2021/03/12 07:59:47;;;;;;;4.50;1.10;;;7.00;99.90;;;;;;5100500;28;20558;-58
2021/03/12 08:02:14;;;;;;;5.20;0.47;;;7.00;99.90;;;;;;5115391;28;20803;-58
2021/03/12 08:04:41;;;;;;;1.80;0.27;;;7.10;99.90;;;;;;5101579;28;20638;-58
2021/03/12 08:07:21;;;;;;;3.20;0.67;;;7.20;99.90;;;;;;5107767;28;20438;-58
2021/03/12 08:09:51;;;;;;;1.67;0.20;;;7.20;99.90;;;;;;5101884;28;20816;-58
2021/03/12 08:12:34;;;;;;;1.70;0.30;;;7.20;99.90;;;;;;5097601;28;20442;-58
2021/03/12 08:15:16;;;;;;;2.13;0.60;;;7.20;99.90;;;;;;5092552;28;20434;-58
2021/03/12 08:17:42;;;;;;;1.70;0.20;;;7.20;99.90;;;;;;5093573;28;20544;-58
2021/03/12 08:20:30;;;;;;;3.90;1.50;;;7.30;99.90;;;;;;5094637;28;20186;-58
2021/03/12 08:22:59;;;;;;;4.00;1.23;;;7.30;99.90;;;;;;5093030;28;20924;-58
2021/03/12 08:25:43;;;;;;;1.70;0.40;;;7.20;99.90;;;;;;5095818;28;20480;-58
2021/03/12 08:28:11;;;;;;;2.73;0.63;;;7.30;99.90;;;;;;5106502;28;20597;-58
2021/03/12 08:30:43;;;;;;;1.70;0.20;;;7.30;99.90;;;;;;5092812;28;20487;-58
2021/03/12 08:33:21;;;;;;;3.40;0.68;;;7.40;99.90;;;;;;5099840;28;20434;-59
2021/03/12 08:35:48;;;;;;;2.00;0.73;;;7.50;99.90;;;;;;5102126;28;20282;-58
2021/03/12 08:38:22;;;;;;;4.55;1.15;;;7.50;99.90;;;;;;5105378;28;20471;-59
2021/03/12 08:41:10;;;;;;;3.07;0.70;;;7.60;99.90;;;;;;5111685;28;20188;-59
2021/03/12 08:43:45;;;;;;;3.00;0.80;;;7.60;99.90;;;;;;5099994;28;20434;-59
2021/03/12 08:46:17;;;;;;;2.57;0.30;;;7.70;99.90;;;;;;5077636;28;20547;-59
2021/03/12 08:48:46;;;;;;;1.70;0.30;;;7.80;99.90;;;;;;5094664;28;20956;-58
2021/03/12 08:51:14;;;;;;;1.60;0.20;;;7.90;99.90;;;;;;5094877;28;20990;-58
2021/03/12 08:53:48;;;;;;;1.70;0.30;;;7.90;99.90;;;;;;5092678;28;20441;-59
2021/03/12 08:56:24;;;;;;;1.60;0.20;;;7.90;99.90;;;;;;5092531;28;20467;-59
2021/03/12 08:58:50;;;;;;;3.15;0.57;;;7.90;99.90;;;;;;5093963;28;20535;-59
2021/03/12 09:01:21;;;;;;;2.63;0.73;;;7.90;99.90;;;;;;5096717;28;20225;-59
2021/03/12 09:03:58;;;;;;;3.70;1.10;;;7.80;99.90;;;;;;5093657;28;20434;-58
2021/03/12 09:06:27;;;;;;;3.33;1.20;;;7.80;99.90;;;;;;5081663;28;20558;-59
2021/03/12 09:08:53;;;;;;;4.03;0.60;;;7.90;99.90;;;;;;5091137;28;20464;-58
2021/03/12 09:11:21;;;;;;;2.20;0.70;;;8.10;99.90;;;;;;5093600;28;20439;-58
2021/03/12 09:13:47;;;;;;;1.60;0.20;;;8.10;99.90;;;;;;5102584;28;20434;-59
2021/03/12 09:16:18;;;;;;;1.67;0.20;;;8.10;99.90;;;;;;5097831;28;20501;-59
2021/03/12 09:18:44;;;;;;;2.30;0.90;;;8.10;99.90;;;;;;5096192;28;20457;-59
2021/03/12 09:21:14;;;;;;;3.80;0.90;;;8.10;99.90;;;;;;5096654;28;20438;-58
2021/03/12 09:23:54;;;;;;;4.27;0.60;;;8.20;99.90;;;;;;5092906;28;20757;-59
2021/03/12 09:26:28;;;;;;;2.20;0.40;;;8.30;99.90;;;;;;5089585;28;20625;-59
2021/03/12 09:28:57;;;;;;;1.90;0.43;;;8.30;99.90;;;;;;5101404;28;20971;-58
2021/03/12 09:31:32;;;;;;;1.80;0.27;;;8.30;99.90;;;;;;5122420;22;20444;-62
2021/03/12 09:34:00;;;;;;;1.70;0.30;;;8.30;99.90;;;;;;5105841;28;20453;-62
2021/03/12 09:36:42;;;;;;;5.43;1.17;;;8.30;99.90;;;;;;5121235;27;20456;-63
2021/03/12 09:39:10;;;;;;;3.23;0.93;;;8.20;99.90;;;;;;5107992;27;20461;-62
2021/03/12 09:41:39;;;;;;;2.40;0.63;;;8.20;99.90;;;;;;5110664;27;20444;-62
2021/03/12 09:44:10;;;;;;;6.10;0.93;;;8.30;99.90;;;;;;5083390;28;20458;-62
2021/03/12 09:46:44;;;;;;;2.77;0.90;;;8.30;99.90;;;;;;5095763;28;20732;-62
2021/03/12 09:49:18;;;;;;;2.57;1.37;;;8.50;99.90;;;;;;5088381;28;20443;-62
2021/03/12 09:51:46;;;;;;;1.67;0.23;;;8.50;99.90;;;;;;5078392;28;20468;-62
2021/03/12 09:54:13;;;;;;;3.13;0.93;;;8.50;99.90;;;;;;5083879;28;20435;-61
2021/03/12 09:56:41;;;;;;;4.00;1.87;;;8.50;99.90;;;;;;5088889;28;20454;-61
2021/03/12 09:59:07;;;;;;;2.30;0.60;;;8.60;99.90;;;;;;5085033;28;20780;-62
2021/03/12 10:01:40;;;;;;;6.17;1.00;;;8.70;99.90;;;;;;5090558;28;20449;-61
2021/03/12 10:04:25;;;;;;;4.40;0.97;;;8.80;99.90;;;;;;5086279;28;20236;-62
2021/03/12 10:07:11;;;;;;;10.27;1.07;;;8.80;99.90;;;;;;5090524;28;20487;-62
2021/03/12 10:09:54;;;;;;;2.70;1.20;;;8.90;99.60;;;;;;5086939;28;20436;-61
2021/03/12 10:12:25;;;;;;;5.87;1.90;;;9.00;99.00;;;;;;5089715;28;20445;-62
2021/03/12 10:14:55;;;;;;;1.60;0.20;;;9.10;98.60;;;;;;5099412;28;20477;-60
2021/03/12 10:17:28;;;;;;;6.97;1.40;;;9.20;98.60;;;;;;5109817;28;20457;-60
2021/03/12 10:20:15;;;;;;;4.27;1.10;;;9.20;98.30;;;;;;5094021;28;20508;-61
2021/03/12 10:22:43;;;;;;;3.97;1.13;;;9.10;97.40;;;;;;5081816;28;20457;-61
2021/03/12 10:25:19;;;;;;;4.03;1.30;;;9.20;97.80;;;;;;5099189;28;20781;-61
2021/03/12 10:27:48;;;;;;;4.90;1.50;;;9.30;97.80;;;;;;5094469;28;20946;-61
2021/03/12 10:30:17;;;;;;;6.13;1.43;;;9.30;97.50;;;;;;5094545;28;20426;-61
2021/03/12 10:33:23;;;;;;;2.67;0.80;;;9.30;97.00;;;;;;5080481;28;20559;-61
2021/03/12 10:35:50;;;;;;;6.57;1.60;;;9.30;96.30;;;;;;5104109;28;20872;-64
2021/03/12 10:38:25;;;;;;;2.33;0.57;;;9.30;96.60;;;;;;5089665;28;20437;-61
2021/03/12 10:41:01;;;;;;;3.90;1.07;;;9.40;95.90;;;;;;5096119;28;20912;-62
2021/03/12 10:43:30;;;;;;;2.77;1.30;;;9.40;95.60;;;;;;5081717;28;20457;-61
2021/03/12 10:46:04;;;;;;;4.07;1.33;;;9.40;95.10;;;;;;5089363;28;20425;-61
2021/03/12 10:48:45;;;;;;;3.37;1.20;;;9.30;95.30;;;;;;5097400;28;20437;-62
2021/03/12 10:51:12;;;;;;;2.30;0.90;;;9.30;95.40;;;;;;5085502;28;20899;-62
2021/03/12 10:53:54;;;;;;;1.60;0.20;;;9.30;95.70;;;;;;5091634;28;20429;-61
2021/03/12 10:56:24;;;;;;;1.57;0.20;;;9.20;96.00;;;;;;5100128;28;20458;-61
2021/03/12 10:58:53;;;;;;;3.07;1.17;;;9.30;96.30;;;;;;5089467;28;20510;-61
2021/03/12 11:01:25;;;;;;;2.13;0.70;;;9.30;95.80;;;;;;5089340;28;20439;-61
2021/03/12 11:03:55;;;;;;;4.70;1.57;;;9.40;95.60;;;;;;5095440;28;20434;-61
2021/03/12 11:06:26;;;;;;;2.83;0.90;;;9.40;95.10;;;;;;5100878;28;20430;-61
2021/03/12 11:08:52;;;;;;;12.43;1.00;;;9.30;95.70;;;;;;5092150;28;20975;-61
2021/03/12 11:11:21;;;;;;;4.90;0.70;;;9.30;95.00;;;;;;5103040;28;20430;-60
2021/03/12 11:13:47;;;;;;;1.80;0.60;;;9.30;95.10;;;;;;5101267;28;20179;-62
2021/03/12 11:16:12;;;;;;;5.67;0.90;;;9.40;95.00;;;;;;5087272;28;20466;-61
2021/03/12 11:18:38;;;;;;;5.20;1.03;;;9.40;95.30;;;;;;5101222;28;20947;-61
2021/03/12 11:21:06;;;;;;;5.67;1.30;;;9.50;95.30;;;;;;5070729;28;20184;-61
2021/03/12 11:23:32;;;;;;;3.13;0.30;;;9.40;95.60;;;;;;5090825;28;20454;-62
2021/03/12 11:25:59;;;;;;;2.43;1.07;;;9.40;96.00;;;;;;5079778;28;20431;-61
2021/03/12 11:28:25;;;;;;;3.13;0.83;;;9.60;96.30;;;;;;5095166;28;20455;-61
2021/03/12 11:30:55;;;;;;;3.80;1.17;;;9.70;96.10;;;;;;5087038;28;20437;-61
2021/03/12 11:33:21;;;;;;;3.30;0.93;;;9.70;96.00;;;;;;5090853;28;20466;-61
2021/03/12 11:35:46;;;;;;;2.80;0.57;;;9.70;96.00;;;;;;5089791;28;20493;-61
2021/03/12 11:38:12;;;;;;;2.53;0.50;;;9.70;96.60;;;;;;5085304;28;20955;-61
2021/03/12 11:40:38;;;;;;;10.30;1.97;;;9.80;97.00;;;;;;5092231;28;20635;-60
2021/03/12 11:43:07;;;;;;;2.23;0.60;;;9.80;96.70;;;;;;5093195;28;20211;-61
2021/03/12 11:45:33;;;;;;;1.70;0.30;;;9.70;96.80;;;;;;5098086;28;20434;-61
2021/03/12 11:47:59;;;;;;;4.33;0.70;;;9.60;96.80;;;;;;5090659;28;20834;-60
2021/03/12 11:50:29;;;;;;;1.60;0.20;;;9.50;97.40;;;;;;5089904;28;20434;-61
2021/03/12 11:52:55;;;;;;;2.03;0.57;;;9.40;98.10;;;;;;5087181;28;20222;-61
2021/03/12 11:55:21;;;;;;;2.90;0.70;;;9.30;98.30;;;;;;5095551;28;20417;-61
2021/03/12 11:57:47;;;;;;;1.60;0.27;;;9.30;97.90;;;;;;5089097;28;20735;-61
2021/03/12 12:00:14;;;;;;;4.80;1.03;;;9.20;98.10;;;;;;5065505;28;20431;-60
2021/03/12 12:02:41;;;;;;;2.27;0.63;;;9.20;98.20;;;;;;5102869;28;20194;-61
2021/03/12 12:05:09;;;;;;;2.13;0.53;;;9.00;98.20;;;;;;5085488;28;20470;-61
2021/03/12 12:07:35;;;;;;;1.60;0.20;;;9.00;98.50;;;;;;5088451;28;20430;-61
2021/03/12 12:10:01;;;;;;;2.00;0.47;;;9.00;98.70;;;;;;5102536;28;20429;-61
2021/03/12 12:12:27;;;;;;;1.60;0.20;;;8.90;98.90;;;;;;5095227;28;20459;-61
2021/03/12 12:14:53;;;;;;;1.60;0.30;;;9.00;99.30;;;;;;5099196;28;20788;-60
2021/03/12 12:17:18;;;;;;;2.13;0.43;;;9.00;99.60;;;;;;5085765;28;20679;-60
2021/03/12 12:19:46;;;;;;;2.47;0.77;;;9.00;99.60;;;;;;5087282;28;20461;-61
2021/03/12 12:22:12;;;;;;;1.83;0.43;;;9.00;99.10;;;;;;5097169;28;20235;-61
2021/03/12 12:24:38;;;;;;;2.10;0.50;;;9.00;99.30;;;;;;5082505;28;20437;-60
2021/03/12 12:27:05;;;;;;;1.70;0.40;;;9.00;99.30;;;;;;5084813;28;20434;-61
2021/03/12 12:29:30;;;;;;;2.20;0.40;;;8.90;99.90;;;;;;5094932;28;20465;-61
2021/03/12 12:31:56;;;;;;;1.60;0.30;;;8.40;99.90;;;;;;5083403;28;20490;-61
2021/03/12 12:34:21;;;;;;;1.80;0.63;;;8.00;99.90;;;;;;5094513;28;20206;-61
2021/03/12 12:36:47;;;;;;;3.90;1.73;;;7.80;99.90;;;;;;5096935;28;20256;-62
2021/03/12 12:39:13;;;;;;;4.43;2.23;;;7.70;99.90;;;;;;5085101;28;20206;-62
2021/03/12 12:41:40;;;;;;;2.67;0.60;;;7.80;99.90;;;;;;5097123;28;20257;-62
2021/03/12 12:44:07;;;;;;;5.23;0.53;;;7.80;99.90;;;;;;5098740;28;20436;-61
2021/03/12 12:46:33;;;;;;;1.80;0.40;;;8.00;99.90;;;;;;5089841;28;20433;-62
2021/03/12 12:48:59;;;;;;;1.90;0.30;;;8.10;99.90;;;;;;5084243;28;20471;-62
2021/03/12 12:51:25;;;;;;;1.70;0.47;;;8.20;99.90;;;;;;5092957;28;20437;-62
2021/03/12 12:53:50;;;;;;;1.90;0.67;;;8.40;99.90;;;;;;5089644;28;20184;-62
2021/03/12 12:56:16;;;;;;;2.20;1.10;;;8.50;99.90;;;;;;5094389;28;20211;-62
2021/03/12 12:58:41;;;;;;;1.60;0.20;;;8.50;99.90;;;;;;5065486;28;20438;-62
2021/03/12 13:01:07;;;;;;;3.60;0.87;;;8.50;99.90;;;;;;5088911;28;20188;-63
2021/03/12 13:03:32;;;;;;;4.63;1.63;;;8.50;99.90;;;;;;5078778;28;20226;-61
2021/03/12 13:05:58;;;;;;;2.63;0.57;;;8.40;99.90;;;;;;5082045;28;20189;-61
2021/03/12 13:08:24;;;;;;;1.63;0.20;;;8.50;99.90;;;;;;5093206;28;20198;-62